Time;durP1;ratioP1;P1;durP2;ratioP2;P2;SDS_P1;SDS_P2;PMS_P1;PMS_P2;Temp;Humidity;BMP_temperature;BMP_pressure;BME280_temperature;BME280_humidity;BME280_pressure;Samples;Min_cycle;Max_cycle;Signal;HPM_P1;HPM_P2
2021/12/16 00:08:42;;;;;;;;;;;;;;;20.91;48.97;103225.31;7283993;19;152349;-51
2021/12/16 00:33:44;;;;;;;;;;;;;;;20.91;48.70;103231.81;7284235;19;152615;-50
2021/12/16 00:36:14;;;;;;;;;;;;;;;20.97;48.93;103238.38;7284528;19;152527;-50
2021/12/16 00:38:42;;;;;;;;;;;;;;;20.95;48.92;103232.13;7280338;19;153508;-49
2021/12/16 00:41:14;;;;;;;;;;;;;;;20.92;49.91;103235.47;7283585;19;153557;-50
2021/12/16 00:54:17;;;;;;;;;;;;;;;20.92;50.14;103244.75;7283626;19;153795;-50
2021/12/16 00:56:52;;;;;;;;;;;;;;;20.91;50.06;103245.00;7285390;19;152661;-50
2021/12/16 00:59:21;;;;;;;;;;;;;;;20.91;50.38;103253.44;7283941;19;154776;-50
2021/12/16 01:02:01;;;;;;;;;;;;;;;20.91;50.54;103245.00;7282526;19;153988;-50
2021/12/16 01:07:33;;;;;;;;;;;;;;;20.90;50.72;103248.91;7284015;19;153273;-51
2021/12/16 01:38:34;;;;;;;;;;;;;;;20.80;51.28;103264.47;7296101;19;151792;-53
2021/12/16 01:51:20;;;;;;;;;;;;;;;20.73;51.23;103271.38;7289606;19;152699;-52
2021/12/16 01:58:45;;;;;;;;;;;;;;;20.66;51.56;103279.13;7288580;19;152531;-52
2021/12/16 02:03:48;;;;;;;;;;;;;;;20.63;51.58;103288.91;7287324;19;153469;-52
2021/12/16 02:08:48;;;;;;;;;;;;;;;20.63;51.37;103299.28;7289635;19;151459;-52
2021/12/16 02:28:21;;;;;;;;;;;;;;;20.48;51.94;103297.06;7287208;19;154033;-52
2021/12/16 02:34:57;;;;;;;;;;;;;;;20.46;51.76;103309.63;7290100;19;152692;-52
2021/12/16 02:36:45;;;;;;;;;;;;;;;20.44;52.14;103306.22;7285780;19;152155;-52
2021/12/16 02:39:18;;;;;;;;;;;;;;;20.45;51.79;103311.56;7288942;19;152524;-52
2021/12/16 02:41:48;;;;;;;;;;;;;;;20.42;52.26;103315.75;7288369;19;152578;-53
2021/12/16 02:49:50;;;;;;;;;;;;;;;20.38;52.10;103305.25;7287668;19;153622;-52
2021/12/16 02:52:18;;;;;;;;;;;;;;;20.40;51.96;103306.69;7288587;19;151841;-52
2021/12/16 02:54:46;;;;;;;;;;;;;;;20.40;52.05;103308.66;7286030;19;152457;-51
2021/12/16 02:57:14;;;;;;;;;;;;;;;20.39;52.16;103298.56;7287312;19;152197;-52
2021/12/16 02:59:41;;;;;;;;;;;;;;;20.36;52.04;103304.66;7288341;19;151493;-52
2021/12/16 03:02:12;;;;;;;;;;;;;;;20.35;52.14;103297.34;7287617;19;152470;-52
2021/12/16 03:04:41;;;;;;;;;;;;;;;20.34;51.99;103295.63;7284263;19;152819;-51
2021/12/16 03:07:11;;;;;;;;;;;;;;;20.31;52.15;103296.13;7285838;19;152116;-51
2021/12/16 03:12:44;;;;;;;;;;;;;;;20.30;52.56;103297.25;7288462;19;152118;-51
2021/12/16 03:15:27;;;;;;;;;;;;;;;20.33;52.08;103299.53;7287194;19;152755;-52
2021/12/16 03:18:02;;;;;;;;;;;;;;;20.31;52.51;103301.72;7286718;19;153262;-52
2021/12/16 03:20:49;;;;;;;;;;;;;;;20.31;52.27;103296.97;7287392;19;151777;-52
2021/12/16 03:39:42;;;;;;;;;;;;;;;20.27;52.80;103292.06;7285891;19;154530;-52
2021/12/16 03:42:09;;;;;;;;;;;;;;;20.23;53.08;103296.47;7285755;19;153504;-51
2021/12/16 03:44:56;;;;;;;;;;;;;;;20.21;52.62;103285.53;7284154;19;153343;-51
2021/12/16 03:47:27;;;;;;;;;;;;;;;20.23;52.68;103288.91;7286196;19;154088;-51
2021/12/16 03:49:54;;;;;;;;;;;;;;;20.19;52.90;103284.06;7286413;19;151701;-51
2021/12/16 03:52:23;;;;;;;;;;;;;;;20.17;52.68;103292.72;7286560;19;152415;-51
2021/12/16 03:54:54;;;;;;;;;;;;;;;20.15;52.79;103292.13;7284801;19;153431;-52
2021/12/16 03:57:24;;;;;;;;;;;;;;;20.14;52.87;103293.22;7293899;19;151901;-51
2021/12/16 03:59:51;;;;;;;;;;;;;;;20.15;53.28;103296.88;7285878;19;154085;-51
2021/12/16 04:02:24;;;;;;;;;;;;;;;20.14;52.88;103295.16;7286590;19;152027;-51
2021/12/16 04:04:51;;;;;;;;;;;;;;;20.18;53.37;103299.19;7283505;19;155221;-52
2021/12/16 04:16:32;;;;;;;;;;;;;;;20.10;52.88;103310.81;7279514;19;153456;-52
2021/12/16 04:19:09;;;;;;;;;;;;;;;20.12;52.65;103303.00;7277965;19;151758;-52
2021/12/16 04:21:38;;;;;;;;;;;;;;;20.11;52.93;103309.72;7282172;19;152750;-51
2021/12/16 04:24:05;;;;;;;;;;;;;;;20.07;53.20;103317.78;7273138;19;151939;-52
2021/12/16 04:26:33;;;;;;;;;;;;;;;20.06;53.39;103318.03;7274774;19;151593;-51
2021/12/16 04:29:03;;;;;;;;;;;;;;;20.08;52.93;103324.25;7273152;19;153726;-52
2021/12/16 04:31:31;;;;;;;;;;;;;;;20.16;52.96;103321.91;7274242;19;151830;-51
2021/12/16 04:33:58;;;;;;;;;;;;;;;20.10;53.02;103322.03;7274141;19;153556;-51
2021/12/16 04:36:26;;;;;;;;;;;;;;;20.07;53.11;103312.16;7273889;19;153358;-51
2021/12/16 04:38:53;;;;;;;;;;;;;;;20.07;53.07;103317.78;7271891;19;152574;-51
2021/12/16 04:41:28;;;;;;;;;;;;;;;20.04;53.47;103323.88;7271531;19;153299;-52
2021/12/16 04:43:55;;;;;;;;;;;;;;;20.03;53.57;103326.94;7274348;19;152087;-51
2021/12/16 04:46:25;;;;;;;;;;;;;;;20.03;53.23;103326.94;7273102;19;153519;-51
2021/12/16 04:48:54;;;;;;;;;;;;;;;20.01;53.40;103327.19;7269113;19;152904;-51
2021/12/16 04:51:22;;;;;;;;;;;;;;;20.00;53.33;103325.47;7273841;19;152285;-51
2021/12/16 04:53:49;;;;;;;;;;;;;;;20.01;53.32;103320.72;7274310;19;152360;-51
2021/12/16 04:56:17;;;;;;;;;;;;;;;19.98;53.54;103322.94;7271109;19;152572;-51
2021/12/16 04:58:45;;;;;;;;;;;;;;;19.99;53.37;103326.56;7273996;19;151830;-51
2021/12/16 05:01:13;;;;;;;;;;;;;;;19.97;53.43;103326.81;7270685;19;152430;-52
2021/12/16 05:03:39;;;;;;;;;;;;;;;19.95;53.51;103326.22;7277968;19;153735;-51
2021/12/16 05:06:07;;;;;;;;;;;;;;;19.98;53.90;103325.75;7272735;19;153347;-52
2021/12/16 05:08:34;;;;;;;;;;;;;;;19.99;54.03;103326.56;7270939;19;154084;-50
2021/12/16 05:11:03;;;;;;;;;;;;;;;19.98;54.12;103324.88;7271916;19;152291;-52
2021/12/16 05:13:31;;;;;;;;;;;;;;;19.93;53.82;103325.63;7272374;19;152965;-51
2021/12/16 05:16:02;;;;;;;;;;;;;;;19.94;54.18;103338.53;7271559;19;153209;-51
2021/12/16 05:18:32;;;;;;;;;;;;;;;19.93;53.77;103328.44;7271025;19;152009;-51
2021/12/16 05:21:01;;;;;;;;;;;;;;;19.94;54.08;103329.28;7273824;19;152581;-51
2021/12/16 05:28:25;;;;;;;;;;;;;;;19.99;53.95;103335.84;7271369;19;153332;-51
2021/12/16 05:30:52;;;;;;;;;;;;;;;19.99;53.76;103341.44;7272168;19;151863;-52
2021/12/16 05:33:21;;;;;;;;;;;;;;;19.98;53.73;103342.56;7271923;19;152670;-51
2021/12/16 05:35:48;;;;;;;;;;;;;;;19.99;53.74;103349.88;7270131;19;153997;-51
2021/12/16 05:38:15;;;;;;;;;;;;;;;19.94;54.04;103349.75;7274093;19;152184;-51
2021/12/16 05:40:42;;;;;;;;;;;;;;;19.91;53.71;103353.06;7276495;19;152616;-52
2021/12/16 05:43:10;;;;;;;;;;;;;;;19.88;54.02;103347.94;7271111;19;154048;-51
2021/12/16 05:45:38;;;;;;;;;;;;;;;19.89;53.87;103348.81;7269241;19;151939;-51
2021/12/16 05:48:08;;;;;;;;;;;;;;;19.88;54.30;103349.91;7278022;19;153189;-52
2021/12/16 05:50:38;;;;;;;;;;;;;;;19.86;54.37;103361.34;7270979;19;152205;-51
2021/12/16 05:53:05;;;;;;;;;;;;;;;19.86;54.11;103360.50;7272960;19;153454;-51
2021/12/16 05:55:32;;;;;;;;;;;;;;;19.85;54.27;103359.63;7268805;19;154307;-51
2021/12/16 05:58:02;;;;;;;;;;;;;;;19.85;54.33;103367.22;7271146;19;152274;-51
2021/12/16 06:00:31;;;;;;;;;;;;;;;19.85;53.99;103372.84;7270428;19;152736;-52
2021/12/16 06:02:59;;;;;;;;;;;;;;;19.83;54.54;103377.81;7268035;19;154837;-51
2021/12/16 06:05:26;;;;;;;;;;;;;;;19.84;54.13;103390.75;7266390;19;152044;-51
2021/12/16 06:07:53;;;;;;;;;;;;;;;19.82;54.29;103384.53;7271834;19;152571;-51
2021/12/16 06:10:58;;;;;;;;;;;;;;;19.83;54.11;103383.44;7275171;19;154066;-51
2021/12/16 06:13:08;;;;;;;;;;;;;;;19.82;54.21;103378.91;7272581;19;153031;-51
2021/12/16 06:28:08;;;;;;;;;;;;;;;19.78;54.48;103403.81;7277068;19;152464;-51
2021/12/16 06:30:36;;;;;;;;;;;;;;;19.76;54.58;103403.19;7275534;19;152582;-51
2021/12/16 06:33:05;;;;;;;;;;;;;;;19.76;54.27;103407.97;7282693;19;152076;-51
2021/12/16 06:35:32;;;;;;;;;;;;;;;19.77;54.21;103409.66;7274942;19;153276;-51
2021/12/16 06:37:59;;;;;;;;;;;;;;;19.77;54.48;103413.31;7275211;19;152049;-51
2021/12/16 06:40:26;;;;;;;;;;;;;;;19.75;54.56;103420.28;7277285;19;155207;-50
2021/12/16 06:42:56;;;;;;;;;;;;;;;19.76;54.50;103419.19;7277001;19;153765;-51
2021/12/16 06:45:30;;;;;;;;;;;;;;;19.75;54.10;103423.09;7275793;19;151801;-51
2021/12/16 06:48:03;;;;;;;;;;;;;;;19.75;54.25;103425.88;7280676;19;153303;-52
2021/12/16 06:53:04;;;;;;;;;;;;;;;19.75;54.15;103426.75;7286452;19;152044;-51
2021/12/16 06:58:12;;;;;;;;;;;;;;;19.72;54.44;103426.34;7276568;19;152531;-51
2021/12/16 07:00:44;;;;;;;;;;;;;;;19.72;54.46;103426.34;7275970;19;152179;-51
2021/12/16 07:05:42;;;;;;;;;;;;;;;19.72;54.34;103437.56;7275056;19;152108;-52
2021/12/16 07:08:11;;;;;;;;;;;;;;;19.73;54.41;103440.16;7275579;19;152594;-52
2021/12/16 07:10:45;;;;;;;;;;;;;;;19.71;54.44;103439.56;7275391;19;152964;-51
2021/12/16 07:13:18;;;;;;;;;;;;;;;19.70;54.60;103439.78;7274086;19;152148;-51
2021/12/16 07:15:47;;;;;;;;;;;;;;;19.72;54.60;103443.19;7282494;19;152585;-51
2021/12/16 07:18:15;;;;;;;;;;;;;;;19.80;54.59;103437.25;7277640;19;151943;-51
2021/12/16 07:20:42;;;;;;;;;;;;;;;19.81;54.48;103442.59;7276277;19;153899;-51
2021/12/16 07:23:09;;;;;;;;;;;;;;;19.81;54.80;103445.38;7274041;19;153282;-51
2021/12/16 07:25:36;;;;;;;;;;;;;;;19.82;54.63;103449.91;7272555;19;151984;-51
2021/12/16 07:28:07;;;;;;;;;;;;;;;19.81;54.95;103450.16;7277233;19;152911;-51
2021/12/16 07:30:37;;;;;;;;;;;;;;;19.79;54.99;103455.16;7271781;19;153787;-50
2021/12/16 07:33:05;;;;;;;;;;;;;;;19.83;54.92;103454.44;7276799;19;152209;-52
2021/12/16 07:35:33;;;;;;;;;;;;;;;19.75;53.85;103453.94;7274419;19;154474;-49
2021/12/16 07:38:00;;;;;;;;;;;;;;;19.71;53.10;103456.38;7283825;19;153380;-49
2021/12/16 07:40:27;;;;;;;;;;;;;;;19.69;53.13;103466.97;7281790;19;152732;-52
2021/12/16 07:45:26;;;;;;;;;;;;;;;19.83;53.00;103473.22;7275952;19;153520;-53
2021/12/16 07:47:53;;;;;;;;;;;;;;;19.87;52.93;103468.81;7276201;19;153223;-52
2021/12/16 07:50:20;;;;;;;;;;;;;;;19.91;52.80;103473.72;7274512;19;152452;-53
2021/12/16 07:52:47;;;;;;;;;;;;;;;19.93;52.85;103474.34;7273556;19;153710;-52
2021/12/16 07:55:14;;;;;;;;;;;;;;;19.96;52.67;103479.44;7276057;19;153707;-52
2021/12/16 07:57:41;;;;;;;;;;;;;;;19.97;52.15;103483.13;7273847;19;152197;-53
2021/12/16 08:00:11;;;;;;;;;;;;;;;19.99;52.28;103483.72;7284422;19;151861;-52
2021/12/16 08:02:39;;;;;;;;;;;;;;;20.04;51.88;103488.59;7279571;19;153943;-53
2021/12/16 08:05:07;;;;;;;;;;;;;;;20.08;51.89;103492.66;7273104;19;152077;-52
2021/12/16 08:07:36;;;;;;;;;;;;;;;20.12;52.26;103496.66;7274308;19;153440;-52
2021/12/16 08:10:03;;;;;;;;;;;;;;;20.11;51.48;103494.94;7275258;19;152695;-52
2021/12/16 08:12:30;;;;;;;;;;;;;;;20.18;50.96;103495.69;7272355;19;152262;-52
2021/12/16 08:14:57;;;;;;;;;;;;;;;20.22;50.81;103506.16;7273746;19;153523;-53
2021/12/16 08:17:24;;;;;;;;;;;;;;;20.26;50.54;103501.78;7271577;19;155049;-52
2021/12/16 08:19:52;;;;;;;;;;;;;;;20.34;50.53;103509.03;7277968;19;152062;-53
2021/12/16 08:22:18;;;;;;;;;;;;;;;20.39;50.83;103512.81;7282811;19;152327;-52
2021/12/16 08:24:45;;;;;;;;;;;;;;;20.45;50.38;103512.91;7277626;19;151948;-52
2021/12/16 08:27:13;;;;;;;;;;;;;;;20.51;50.17;103515.59;7278461;19;152615;-52
2021/12/16 08:29:40;;;;;;;;;;;;;;;20.56;50.37;103512.91;7277959;19;154033;-53
2021/12/16 08:32:08;;;;;;;;;;;;;;;20.64;50.16;103517.28;7275718;19;152425;-52
2021/12/16 08:34:37;;;;;;;;;;;;;;;20.74;49.94;103518.38;7275677;19;152821;-53
2021/12/16 08:37:06;;;;;;;;;;;;;;;20.81;49.71;103518.22;7274925;19;153730;-53
2021/12/16 08:39:33;;;;;;;;;;;;;;;20.90;49.61;103525.16;7275666;19;152374;-52
2021/12/16 08:42:00;;;;;;;;;;;;;;;20.98;50.20;103526.75;7273443;19;153696;-53
2021/12/16 08:44:27;;;;;;;;;;;;;;;21.01;49.69;103526.25;7281437;19;154213;-52
2021/12/16 08:46:59;;;;;;;;;;;;;;;21.04;49.67;103534.16;7276338;19;152867;-53
2021/12/16 08:49:26;;;;;;;;;;;;;;;21.10;49.73;103530.38;7275278;19;154169;-53
2021/12/16 08:51:54;;;;;;;;;;;;;;;21.14;49.43;103535.28;7275518;19;152041;-53
2021/12/16 08:54:22;;;;;;;;;;;;;;;21.18;49.00;103535.63;7272863;19;153314;-53
2021/12/16 08:56:49;;;;;;;;;;;;;;;21.23;48.90;103541.34;7271340;19;153812;-52
2021/12/16 08:59:16;;;;;;;;;;;;;;;21.29;49.08;103540.38;7275578;19;152112;-53
2021/12/16 09:01:45;;;;;;;;;;;;;;;21.34;48.66;103536.81;7275601;19;152842;-53
2021/12/16 09:04:12;;;;;;;;;;;;;;;21.38;48.79;103550.13;7276362;19;153248;-53
2021/12/16 09:06:39;;;;;;;;;;;;;;;21.44;48.66;103554.72;7271754;19;153313;-53
2021/12/16 09:09:07;;;;;;;;;;;;;;;21.49;48.49;103563.25;7274270;19;154052;-53
2021/12/16 09:11:40;;;;;;;;;;;;;;;21.53;48.24;103564.44;7269971;19;152355;-53
2021/12/16 09:14:07;;;;;;;;;;;;;;;21.60;47.88;103570.81;7275896;19;153774;-53
2021/12/16 09:16:36;;;;;;;;;;;;;;;21.64;48.01;103568.31;7276874;19;153279;-50
2021/12/16 09:19:05;;;;;;;;;;;;;;;21.66;48.08;103564.19;7276884;19;152008;-50
2021/12/16 09:21:34;;;;;;;;;;;;;;;21.71;47.87;103569.88;7277917;19;152736;-50
2021/12/16 09:24:01;;;;;;;;;;;;;;;21.75;47.74;103564.63;7279693;19;154526;-50
2021/12/16 09:26:28;;;;;;;;;;;;;;;21.78;47.44;103568.88;7282499;19;152005;-50
2021/12/16 09:29:00;;;;;;;;;;;;;;;21.81;47.17;103574.84;7274506;19;153890;-50
2021/12/16 09:31:28;;;;;;;;;;;;;;;21.82;47.22;103579.38;7275314;19;152142;-51
2021/12/16 09:33:56;;;;;;;;;;;;;;;21.85;47.36;103575.22;7275638;19;152681;-51
2021/12/16 09:36:25;;;;;;;;;;;;;;;21.86;47.26;103574.06;7275240;19;154119;-50
2021/12/16 09:38:52;;;;;;;;;;;;;;;21.88;47.02;103571.88;7274652;19;152181;-50
2021/12/16 09:41:19;;;;;;;;;;;;;;;21.89;47.06;103576.41;7274572;19;151993;-50
2021/12/16 09:43:48;;;;;;;;;;;;;;;21.89;47.08;103577.25;7272257;19;154209;-50
2021/12/16 09:46:17;;;;;;;;;;;;;;;21.91;47.17;103589.09;7272270;19;152285;-50
2021/12/16 09:48:44;;;;;;;;;;;;;;;21.89;46.73;103579.22;7247043;19;153131;-51
2021/12/16 09:51:16;;;;;;;;;;;;;;;21.91;46.92;103591.06;7267609;19;152152;-50
2021/12/16 09:53:50;;;;;;;;;;;;;;;21.91;46.65;103579.81;7278629;19;153477;-50
2021/12/16 09:56:19;;;;;;;;;;;;;;;21.90;46.90;103586.53;7277827;19;154436;-50
2021/12/16 09:58:47;;;;;;;;;;;;;;;21.91;46.80;103591.06;7279480;19;151887;-50
2021/12/16 10:01:15;;;;;;;;;;;;;;;21.91;46.80;103599.50;7280967;19;153486;-50
2021/12/16 10:03:44;;;;;;;;;;;;;;;21.89;46.95;103601.75;7280387;19;153920;-51
2021/12/16 10:06:12;;;;;;;;;;;;;;;21.88;46.82;103612.16;7278354;19;151970;-50
2021/12/16 10:08:40;;;;;;;;;;;;;;;21.89;46.32;103604.56;7280239;19;152586;-49
2021/12/16 10:11:07;;;;;;;;;;;;;;;21.90;46.74;103617.50;7284533;19;154518;-49
2021/12/16 10:13:45;;;;;;;;;;;;;;;21.89;46.54;103627.06;7279252;19;152557;-50
2021/12/16 10:18:42;;;;;;;;;;;;;;;21.88;46.32;103617.78;7278500;19;152961;-50
2021/12/16 10:21:09;;;;;;;;;;;;;;;21.88;46.25;103616.91;7278935;19;152695;-50
2021/12/16 10:23:38;;;;;;;;;;;;;;;21.87;46.24;103615.19;7278986;19;152974;-50
2021/12/16 10:26:14;;;;;;;;;;;;;;;21.85;46.60;103618.25;7279778;19;152274;-50
2021/12/16 10:28:43;;;;;;;;;;;;;;;21.86;46.54;103624.75;7281350;19;152600;-50
2021/12/16 10:31:10;;;;;;;;;;;;;;;21.83;46.64;103622.44;7275978;19;153157;-50
2021/12/16 10:33:40;;;;;;;;;;;;;;;21.83;46.61;103619.63;7287824;19;152109;-50
2021/12/16 10:36:10;;;;;;;;;;;;;;;21.82;46.17;103620.72;7278062;19;153174;-50
2021/12/16 10:38:39;;;;;;;;;;;;;;;21.82;46.54;103621.59;7279202;19;151907;-49
2021/12/16 10:41:07;;;;;;;;;;;;;;;21.81;46.27;103617.06;7278925;19;152655;-49
2021/12/16 10:43:34;;;;;;;;;;;;;;;21.80;46.46;103615.38;7278033;19;153752;-50
2021/12/16 10:46:04;;;;;;;;;;;;;;;21.78;46.30;103608.28;7278636;19;152333;-49
2021/12/16 10:48:32;;;;;;;;;;;;;;;21.78;46.28;103617.56;7280155;19;154045;-50
2021/12/16 10:51:01;;;;;;;;;;;;;;;21.75;46.36;103623.72;7277953;19;153966;-50
2021/12/16 10:53:31;;;;;;;;;;;;;;;21.73;46.30;103620.28;7279602;19;151780;-49
2021/12/16 10:55:58;;;;;;;;;;;;;;;21.73;46.28;103623.09;7286033;19;153224;-50
2021/12/16 10:58:28;;;;;;;;;;;;;;;21.70;46.49;103618.84;7278492;19;152034;-50
2021/12/16 11:00:55;;;;;;;;;;;;;;;21.70;46.45;103620.78;7280867;19;152796;-49
2021/12/16 11:03:25;;;;;;;;;;;;;;;21.67;45.98;103624.94;7278480;19;154359;-50
2021/12/16 11:05:53;;;;;;;;;;;;;;;21.66;46.22;103622.41;7275866;19;152013;-50
2021/12/16 11:08:21;;;;;;;;;;;;;;;21.64;46.18;103622.66;7277066;19;152705;-50
2021/12/16 11:10:47;;;;;;;;;;;;;;;21.60;46.47;103618.63;7277423;19;153926;-49
2021/12/16 11:13:15;;;;;;;;;;;;;;;21.59;46.25;103625.34;7279512;19;152193;-49
2021/12/16 11:15:44;;;;;;;;;;;;;;;21.53;46.32;103628.34;7284735;19;152763;-50
2021/12/16 11:18:14;;;;;;;;;;;;;;;21.53;46.17;103623.53;7254960;19;152711;-50
2021/12/16 11:20:43;;;;;;;;;;;;;;;21.49;46.25;103624.28;7264694;19;152475;-50
2021/12/16 11:23:12;;;;;;;;;;;;;;;21.49;46.50;103625.16;7275270;19;153277;-50
2021/12/16 11:25:41;;;;;;;;;;;;;;;21.46;46.29;103622.84;7277318;19;152312;-50
2021/12/16 11:28:08;;;;;;;;;;;;;;;21.45;46.25;103617.44;7275566;19;153489;-50
2021/12/16 11:30:37;;;;;;;;;;;;;;;21.44;46.18;103624.22;7278035;19;153885;-50
2021/12/16 11:33:08;;;;;;;;;;;;;;;21.42;46.44;103630.06;7277420;19;151633;-50
2021/12/16 11:35:37;;;;;;;;;;;;;;;21.41;46.61;103624.69;7279786;19;152147;-50
2021/12/16 11:38:09;;;;;;;;;;;;;;;21.35;46.46;103629.34;7284861;19;153326;-50
2021/12/16 11:40:43;;;;;;;;;;;;;;;21.38;46.66;103622.38;7277040;19;152162;-49
2021/12/16 11:43:10;;;;;;;;;;;;;;;21.32;46.99;103623.38;7275700;19;154535;-49
2021/12/16 11:45:39;;;;;;;;;;;;;;;21.32;47.02;103629.84;7277053;19;152312;-50
2021/12/16 11:48:06;;;;;;;;;;;;;;;21.30;46.64;103629.25;7276083;19;153041;-50
2021/12/16 11:50:38;;;;;;;;;;;;;;;21.30;47.13;103626.44;7275338;19;152427;-50
2021/12/16 11:53:05;;;;;;;;;;;;;;;21.29;47.06;103627.53;7279092;19;151818;-50
2021/12/16 11:55:34;;;;;;;;;;;;;;;21.26;47.26;103628.88;7276220;19;152837;-50
2021/12/16 11:58:03;;;;;;;;;;;;;;;21.28;47.88;103639.88;7276209;19;153160;-54
2021/12/16 12:00:33;;;;;;;;;;;;;;;21.26;49.02;103634.50;7285049;19;152073;-51
2021/12/16 12:03:02;;;;;;;;;;;;;;;21.28;50.36;103640.75;7274881;19;153340;-51
2021/12/16 12:05:32;;;;;;;;;;;;;;;21.22;51.27;103629.63;7278221;19;153315;-51
2021/12/16 12:08:01;;;;;;;;;;;;;;;21.23;51.15;103635.00;7277296;19;152609;-51
2021/12/16 12:10:32;;;;;;;;;;;;;;;21.23;51.39;103631.34;7276885;19;153293;-51
2021/12/16 12:13:02;;;;;;;;;;;;;;;21.22;50.75;103638.06;7279211;19;152340;-51
2021/12/16 12:15:29;;;;;;;;;;;;;;;21.16;50.64;103630.63;7278249;19;152274;-51
2021/12/16 12:17:57;;;;;;;;;;;;;;;21.10;50.24;103634.38;7275333;19;153585;-51
2021/12/16 12:20:26;;;;;;;;;;;;;;;21.06;49.95;103642.47;7274668;19;152000;-51
2021/12/16 12:22:54;;;;;;;;;;;;;;;21.03;49.78;103634.50;7283187;19;152626;-51
2021/12/16 12:25:21;;;;;;;;;;;;;;;21.04;50.17;103636.22;7276172;19;151725;-51
2021/12/16 12:27:48;;;;;;;;;;;;;;;21.10;49.46;103632.44;7272188;19;152894;-51
2021/12/16 12:30:16;;;;;;;;;;;;;;;21.17;49.00;103635.13;7273509;19;152231;-51
2021/12/16 12:32:44;;;;;;;;;;;;;;;21.20;48.92;103631.84;7277339;19;152202;-51
2021/12/16 12:35:15;;;;;;;;;;;;;;;21.20;48.62;103629.91;7276606;19;153451;-51
2021/12/16 12:37:44;;;;;;;;;;;;;;;21.26;48.44;103628.03;7278575;19;153922;-51
2021/12/16 12:40:13;;;;;;;;;;;;;;;21.27;48.35;103629.72;7253337;19;153927;-50
2021/12/16 12:42:40;;;;;;;;;;;;;;;21.29;48.35;103631.22;7271650;19;152121;-50
2021/12/16 12:45:10;;;;;;;;;;;;;;;21.34;47.94;103624.00;7287927;19;153518;-51
2021/12/16 12:47:40;;;;;;;;;;;;;;;21.36;47.84;103624.56;7279189;19;152665;-50
2021/12/16 12:50:08;;;;;;;;;;;;;;;21.39;47.82;103621.28;7275994;19;153982;-50
2021/12/16 12:52:35;;;;;;;;;;;;;;;21.38;48.08;103623.25;7282269;19;152317;-51
2021/12/16 12:55:05;;;;;;;;;;;;;;;21.42;47.82;103624.44;7277527;19;152932;-50
2021/12/16 12:57:34;;;;;;;;;;;;;;;21.44;48.00;103618.59;7274185;19;154132;-50
2021/12/16 13:00:04;;;;;;;;;;;;;;;21.43;47.41;103617.72;7276431;19;152331;-50
2021/12/16 13:02:34;;;;;;;;;;;;;;;21.46;47.55;103624.78;7273439;19;153397;-50
2021/12/16 13:05:02;;;;;;;;;;;;;;;21.48;47.75;103623.47;7273840;19;154489;-50
2021/12/16 13:07:31;;;;;;;;;;;;;;;21.50;47.90;103626.84;7286786;19;152749;-50
2021/12/16 13:10:01;;;;;;;;;;;;;;;21.51;47.71;103622.09;7276662;19;153762;-51
2021/12/16 13:12:35;;;;;;;;;;;;;;;21.50;47.52;103623.19;7274688;19;151895;-50
2021/12/16 13:15:13;;;;;;;;;;;;;;;21.52;47.58;103624.66;7276755;19;152936;-50
2021/12/16 13:25:48;;;;;;;;;;;;;;;21.49;47.61;103625.16;7279205;19;154558;-50
2021/12/16 13:28:04;;;;;;;;;;;;;;;21.51;47.25;103628.56;7279694;19;152003;-50
2021/12/16 13:30:38;;;;;;;;;;;;;;;21.52;47.43;103616.22;7274210;19;153371;-50
2021/12/16 13:33:16;;;;;;;;;;;;;;;21.56;47.23;103627.81;7278679;19;151691;-50
2021/12/16 13:38:16;;;;;;;;;;;;;;;21.63;47.14;103617.25;7274802;19;153336;-50
2021/12/16 13:40:45;;;;;;;;;;;;;;;21.67;47.11;103618.47;7273435;19;151823;-51
2021/12/16 13:43:21;;;;;;;;;;;;;;;21.70;46.85;103617.97;7275969;19;153375;-50
2021/12/16 13:45:59;;;;;;;;;;;;;;;21.74;46.56;103622.00;7276589;19;153753;-50
2021/12/16 13:48:43;;;;;;;;;;;;;;;21.78;46.64;103628.81;7273646;19;151740;-50
2021/12/16 14:06:28;;;;;;;;;;;;;;;21.91;45.90;103613.59;7275584;19;153875;-51
2021/12/16 14:08:55;;;;;;;;;;;;;;;21.92;45.96;103624.59;7279138;19;152048;-50
2021/12/16 14:46:59;;;;;;;;;;;;;;;21.87;44.86;103627.31;7280264;19;152278;-50
2021/12/16 14:49:27;;;;;;;;;;;;;;;21.88;45.18;103633.81;7279224;19;152576;-50
2021/12/16 14:51:57;;;;;;;;;;;;;;;21.86;44.83;103633.19;7281863;19;154328;-50
2021/12/16 14:54:25;;;;;;;;;;;;;;;21.84;45.17;103627.84;7275572;19;153610;-51
2021/12/16 14:56:57;;;;;;;;;;;;;;;21.85;45.23;103625.88;7280080;19;151996;-50
2021/12/16 14:59:25;;;;;;;;;;;;;;;21.83;45.07;103631.75;7287069;19;151967;-51
2021/12/16 15:01:54;;;;;;;;;;;;;;;21.83;45.00;103633.69;7277320;19;152233;-51
2021/12/16 15:04:24;;;;;;;;;;;;;;;21.80;45.07;103637.88;7277020;19;152389;-51
2021/12/16 15:07:00;;;;;;;;;;;;;;;21.78;44.98;103637.28;7275676;19;152286;-50
2021/12/16 15:09:30;;;;;;;;;;;;;;;21.78;44.87;103639.22;7276953;19;152047;-51
2021/12/16 15:39:48;;;;;;;;;;;;;;;21.59;45.38;103658.25;7279133;19;152126;-50
2021/12/16 15:44:48;;;;;;;;;;;;;;;21.52;45.50;103652.78;7276567;19;151916;-50
2021/12/16 15:47:15;;;;;;;;;;;;;;;21.50;45.06;103659.75;7276620;19;153002;-50
2021/12/16 15:49:43;;;;;;;;;;;;;;;21.48;44.99;103664.78;7278056;19;151917;-50
2021/12/16 15:52:10;;;;;;;;;;;;;;;21.47;45.52;103663.06;7277311;19;152639;-51
2021/12/16 15:54:38;;;;;;;;;;;;;;;21.43;45.38;103668.34;7274457;19;153602;-51
2021/12/16 15:57:06;;;;;;;;;;;;;;;21.41;45.34;103662.09;7275854;19;152378;-51
2021/12/16 15:59:34;;;;;;;;;;;;;;;21.39;45.41;103658.72;7274728;19;152773;-50
2021/12/16 16:02:01;;;;;;;;;;;;;;;21.33;45.27;103662.50;7277046;19;153754;-50
2021/12/16 16:04:30;;;;;;;;;;;;;;;21.33;45.37;103659.69;7283838;19;152398;-50
2021/12/16 16:07:00;;;;;;;;;;;;;;;21.27;45.47;103666.28;7274085;19;153311;-51
2021/12/16 16:09:33;;;;;;;;;;;;;;;21.26;45.22;103661.75;7276593;19;152098;-50
2021/12/16 16:12:00;;;;;;;;;;;;;;;21.27;45.34;103667.16;7278549;19;153138;-50
2021/12/16 16:14:31;;;;;;;;;;;;;;;21.22;45.39;103652.13;7276338;19;154092;-50
2021/12/16 16:17:02;;;;;;;;;;;;;;;21.17;45.88;103658.47;7277817;19;151904;-51
2021/12/16 16:19:31;;;;;;;;;;;;;;;21.14;46.10;103666.56;7277689;19;152804;-51
2021/12/16 16:22:02;;;;;;;;;;;;;;;21.10;45.95;103665.31;7275273;19;153794;-50
2021/12/16 16:24:32;;;;;;;;;;;;;;;21.07;46.14;103668.63;7273086;19;152437;-51
2021/12/16 16:27:01;;;;;;;;;;;;;;;21.04;46.24;103666.28;7281467;19;153004;-50
2021/12/16 16:29:29;;;;;;;;;;;;;;;21.01;46.13;103673.28;7274254;19;152885;-51
2021/12/16 16:31:56;;;;;;;;;;;;;;;20.96;46.22;103670.34;7278588;19;153338;-50
2021/12/16 16:34:26;;;;;;;;;;;;;;;20.97;45.74;103674.00;7275147;19;154200;-50
2021/12/16 16:36:55;;;;;;;;;;;;;;;20.92;46.18;103674.75;7280198;19;151767;-50
2021/12/16 16:39:24;;;;;;;;;;;;;;;20.89;46.46;103671.56;7279008;19;152788;-51
2021/12/16 16:41:53;;;;;;;;;;;;;;;20.86;45.99;103675.72;7278056;19;152848;-51
2021/12/16 16:44:21;;;;;;;;;;;;;;;20.84;46.04;103684.41;7279842;19;152899;-50
2021/12/16 16:46:56;;;;;;;;;;;;;;;20.84;46.50;103683.53;7277408;19;152350;-50
2021/12/16 16:49:26;;;;;;;;;;;;;;;20.81;46.40;103684.00;7281352;19;152972;-50
2021/12/16 16:51:55;;;;;;;;;;;;;;;20.80;46.13;103677.53;7279970;19;153145;-51
2021/12/16 16:54:25;;;;;;;;;;;;;;;20.78;46.36;103678.88;7277700;19;153361;-51
2021/12/16 16:56:57;;;;;;;;;;;;;;;20.75;46.37;103682.19;7279004;19;151729;-50
2021/12/16 16:59:26;;;;;;;;;;;;;;;20.78;46.69;103682.56;7280642;19;153247;-51
2021/12/16 17:01:53;;;;;;;;;;;;;;;20.85;46.22;103680.47;7275186;19;153039;-50
2021/12/16 17:04:20;;;;;;;;;;;;;;;20.91;45.85;103684.25;7274649;19;151925;-50
2021/12/16 17:06:51;;;;;;;;;;;;;;;20.95;45.94;103679.88;7278656;19;152731;-51